createdAt,value
2019-05-11T00:00:05.926Z,100766.38
2019-05-11T00:02:36.372Z,100765.87
2019-05-11T00:05:06.603Z,100757.37
2019-05-11T00:07:36.768Z,100760.53
2019-05-11T00:10:06.876Z,100762.09
2019-05-11T00:12:36.991Z,100757.61
2019-05-11T00:15:07.277Z,100753.62
2019-05-11T00:17:37.497Z,100751.48
2019-05-11T00:20:08.069Z,100745.59
2019-05-11T00:22:38.254Z,100746.02
2019-05-11T00:25:08.844Z,100745.29
2019-05-11T00:27:39.828Z,100743.02
2019-05-11T00:30:10.394Z,100740.61
2019-05-11T00:32:40.559Z,100741.90
2019-05-11T00:35:10.763Z,100738.86
2019-05-11T00:37:40.882Z,100728.72
2019-05-11T00:40:14.822Z,100728.06
2019-05-11T00:42:43.242Z,100729.50
2019-05-11T00:45:13.495Z,100725.95
2019-05-11T00:47:43.599Z,100725.68
2019-05-11T00:50:13.869Z,100715.70
2019-05-11T00:52:43.975Z,100708.80
2019-05-11T00:55:14.101Z,100711.56
2019-05-11T00:57:44.220Z,100697.15
2019-05-11T01:00:15.532Z,100697.23
2019-05-11T01:02:45.648Z,100701.78
2019-05-11T01:05:15.820Z,100683.27
2019-05-11T01:07:45.962Z,100677.77
2019-05-11T01:10:25.577Z,100680.31
2019-05-11T01:12:47.953Z,100682.96
2019-05-11T01:15:18.213Z,100690.66
2019-05-11T01:17:48.415Z,100695.79
2019-05-11T01:20:18.862Z,100708.06
2019-05-11T01:22:48.931Z,100711.57
2019-05-11T01:25:19.307Z,100711.43
2019-05-11T01:27:49.689Z,100713.97
2019-05-11T01:30:19.902Z,100715.86
2019-05-11T01:32:50.043Z,100718.84
2019-05-11T01:35:21.165Z,100708.03
2019-05-11T01:37:51.317Z,100708.56
2019-05-11T01:40:21.572Z,100701.72
2019-05-11T01:42:51.667Z,100706.34
2019-05-11T01:45:21.822Z,100711.00
2019-05-11T01:47:52.101Z,100705.05
2019-05-11T01:50:22.276Z,100696.22
2019-05-11T01:52:52.425Z,100695.61
2019-05-11T01:55:22.638Z,100703.05
2019-05-11T01:57:52.831Z,100702.52
2019-05-11T02:00:22.930Z,100699.69
2019-05-11T02:02:53.231Z,100702.69
2019-05-11T02:05:33.530Z,100699.72
2019-05-11T02:08:03.617Z,100695.75
2019-05-11T02:10:35.168Z,100694.78
2019-05-11T02:13:05.373Z,100685.08
2019-05-11T02:15:35.511Z,100682.79
2019-05-11T02:18:06.091Z,100685.34
2019-05-11T02:20:36.257Z,100691.91
2019-05-11T02:23:06.372Z,100684.62
2019-05-11T02:25:36.591Z,100687.09
2019-05-11T02:28:06.704Z,100695.38
2019-05-11T02:30:37.022Z,100694.81
2019-05-11T02:33:07.258Z,100696.63
2019-05-11T02:35:37.412Z,100691.23
2019-05-11T02:38:07.799Z,100693.45
2019-05-11T02:40:38.003Z,100697.99
2019-05-11T02:43:11.202Z,100690.28
2019-05-11T02:45:43.006Z,100688.14
2019-05-11T02:48:13.119Z,100695.77
2019-05-11T02:50:44.670Z,100693.86
2019-05-11T02:53:16.198Z,100693.35
2019-05-11T02:55:49.152Z,100686.34
2019-05-11T02:58:19.291Z,100689.57
2019-05-11T03:00:49.436Z,100694.44
2019-05-11T03:03:19.559Z,100703.32
2019-05-11T03:05:49.791Z,100700.24
2019-05-11T03:08:20.959Z,100697.23
2019-05-11T03:10:51.419Z,100705.63
2019-05-11T03:13:21.619Z,100703.29
2019-05-11T03:15:51.808Z,100707.01
2019-05-11T03:18:21.958Z,100699.35
2019-05-11T03:20:52.153Z,100699.35
2019-05-11T03:23:22.313Z,100694.49
2019-05-11T03:25:52.677Z,100699.70
2019-05-11T03:28:22.803Z,100702.32
2019-05-11T03:30:52.923Z,100705.31
2019-05-11T03:33:23.011Z,100706.14
2019-05-11T03:35:53.133Z,100700.05
2019-05-11T03:38:23.312Z,100702.64
2019-05-11T03:40:53.394Z,100698.75
2019-05-11T03:43:23.538Z,100705.83
2019-05-11T03:45:53.667Z,100712.84
2019-05-11T03:48:23.793Z,100706.66
2019-05-11T03:50:54.942Z,100707.61
2019-05-11T03:53:25.111Z,100704.08
2019-05-11T03:55:55.215Z,100699.77
2019-05-11T03:58:26.534Z,100693.30
2019-05-11T04:00:57.071Z,100689.70
2019-05-11T04:03:27.183Z,100693.78
2019-05-11T04:05:57.266Z,100691.77
2019-05-11T04:08:27.412Z,100698.66
2019-05-11T04:10:57.513Z,100695.19
2019-05-11T04:13:27.610Z,100701.82
2019-05-11T04:15:58.772Z,100701.39
2019-05-11T04:18:29.060Z,100698.94
2019-05-11T04:20:59.150Z,100703.17
2019-05-11T04:23:29.328Z,100697.80
2019-05-11T04:25:59.435Z,100708.37
2019-05-11T04:28:29.638Z,100711.20
2019-05-11T04:30:59.758Z,100712.50
2019-05-11T04:33:33.125Z,100705.63
2019-05-11T04:36:02.961Z,100703.17
2019-05-11T04:38:33.116Z,100708.92
2019-05-11T04:41:03.353Z,100706.81
2019-05-11T04:43:33.540Z,100715.42
2019-05-11T04:46:03.651Z,100714.61
2019-05-11T04:48:33.786Z,100716.14
2019-05-11T04:51:05.731Z,100713.50
2019-05-11T04:53:46.032Z,100724.13
2019-05-11T04:56:21.398Z,100715.25
2019-05-11T04:58:51.565Z,100724.19
2019-05-11T05:01:21.730Z,100722.38
2019-05-11T05:03:54.138Z,100721.21
2019-05-11T05:06:24.562Z,100717.64
2019-05-11T05:08:58.235Z,100720.27
2019-05-11T05:11:36.524Z,100723.67
2019-05-11T05:14:08.292Z,100725.75
2019-05-11T05:16:38.688Z,100728.70
2019-05-11T05:19:09.239Z,100739.61
2019-05-11T05:21:39.565Z,100735.87
2019-05-11T05:24:11.594Z,100740.15
2019-05-11T05:26:44.705Z,100730.98
2019-05-11T05:29:16.126Z,100737.26
2019-05-11T05:31:47.720Z,100731.91
2019-05-11T05:34:19.559Z,100740.77
2019-05-11T05:36:49.653Z,100737.13
2019-05-11T05:39:19.775Z,100741.50
2019-05-11T05:41:57.064Z,100742.67
2019-05-11T05:44:22.303Z,100737.13
2019-05-11T05:46:52.396Z,100731.14
2019-05-11T05:49:22.557Z,100731.10
2019-05-11T05:51:52.703Z,100726.42
2019-05-11T05:54:22.896Z,100729.40
2019-05-11T05:56:53.043Z,100731.48
2019-05-11T05:59:25.622Z,100731.81
2019-05-11T06:01:57.788Z,100733.47
2019-05-11T06:04:27.919Z,100731.91
2019-05-11T06:06:58.049Z,100733.84
2019-05-11T06:09:28.209Z,100742.71
2019-05-11T06:11:58.338Z,100744.85
2019-05-11T06:14:28.657Z,100741.66
2019-05-11T06:16:58.774Z,100741.51
2019-05-11T06:19:28.978Z,100738.03
2019-05-11T06:21:59.075Z,100735.19
2019-05-11T06:24:29.209Z,100733.20
2019-05-11T06:26:59.533Z,100734.33
2019-05-11T06:29:31.392Z,100733.52
2019-05-11T06:32:01.605Z,100739.28
2019-05-11T06:34:31.768Z,100737.45
2019-05-11T06:37:01.903Z,100743.09
2019-05-11T06:39:32.056Z,100742.32
2019-05-11T06:42:05.663Z,100738.20
2019-05-11T06:44:37.448Z,100745.13
2019-05-11T06:47:07.563Z,100746.08
2019-05-11T06:49:37.705Z,100741.92
2019-05-11T06:52:07.827Z,100734.44
2019-05-11T06:54:45.025Z,100728.97
2019-05-11T06:57:15.134Z,100730.53
2019-05-11T06:59:50.177Z,100732.48
2019-05-11T07:02:20.351Z,100738.63
2019-05-11T07:04:50.531Z,100743.48
2019-05-11T07:07:20.639Z,100747.77
2019-05-11T07:10:00.071Z,100747.38
2019-05-11T07:12:33.174Z,100753.45
2019-05-11T07:15:03.289Z,100753.03
2019-05-11T07:17:33.485Z,100756.77
2019-05-11T07:20:03.663Z,100755.81
2019-05-11T07:22:33.755Z,100763.25
2019-05-11T07:25:04.099Z,100756.47
2019-05-11T07:27:34.204Z,100771.08
2019-05-11T07:30:07.061Z,100771.16
2019-05-11T07:32:38.089Z,100771.97
2019-05-11T07:35:09.220Z,100777.97
2019-05-11T07:37:39.365Z,100781.05
2019-05-11T07:40:11.887Z,100786.48
2019-05-11T07:42:42.105Z,100785.07
2019-05-11T07:45:13.109Z,100786.66
2019-05-11T07:47:43.171Z,100787.30
2019-05-11T07:50:13.343Z,100788.34
2019-05-11T07:52:43.431Z,100788.06
2019-05-11T07:55:14.280Z,100787.09
2019-05-11T07:57:48.174Z,100787.02
2019-05-11T08:00:27.872Z,100787.05
2019-05-11T08:02:58.539Z,100798.05
2019-05-11T08:05:28.910Z,100792.58
2019-05-11T08:07:59.651Z,100798.31
2019-05-11T08:10:32.770Z,100793.77
2019-05-11T08:13:02.882Z,100799.33
2019-05-11T08:15:34.635Z,100797.61
2019-05-11T08:18:04.813Z,100806.30
2019-05-11T08:20:35.040Z,100800.39
2019-05-11T08:23:05.202Z,100798.25
2019-05-11T08:25:40.257Z,100799.70
2019-05-11T08:28:11.983Z,100800.20
2019-05-11T08:30:41.121Z,100807.66
2019-05-11T08:33:11.267Z,100816.16
2019-05-11T08:35:41.409Z,100816.72
2019-05-11T08:38:11.565Z,100816.91
2019-05-11T08:40:41.755Z,100820.42
2019-05-11T08:43:11.934Z,100824.43
2019-05-11T08:45:42.107Z,100825.00
2019-05-11T08:48:12.355Z,100823.93
2019-05-11T08:50:42.575Z,100822.28
2019-05-11T08:53:14.068Z,100826.63
2019-05-11T08:55:45.539Z,100823.48
2019-05-11T08:58:19.130Z,100821.95
2019-05-11T09:00:47.859Z,100825.83
2019-05-11T09:03:18.085Z,100820.66
2019-05-11T09:05:49.811Z,100827.65
2019-05-11T09:08:20.058Z,100823.37
2019-05-11T09:10:50.191Z,100830.66
2019-05-11T09:13:20.355Z,100836.55
2019-05-11T09:15:50.578Z,100841.39
2019-05-11T09:18:22.817Z,100847.83
2019-05-11T09:20:52.931Z,100851.45
2019-05-11T09:23:34.581Z,100852.57
2019-05-11T09:25:59.988Z,100858.11
2019-05-11T09:28:31.340Z,100859.48
2019-05-11T09:31:01.609Z,100860.20
2019-05-11T09:33:31.769Z,100864.76
2019-05-11T09:36:02.107Z,100865.50
2019-05-11T09:38:33.507Z,100865.09
2019-05-11T09:41:03.673Z,100867.78
2019-05-11T09:43:37.540Z,100868.09
2019-05-11T09:46:15.301Z,100881.96
2019-05-11T09:48:45.536Z,100879.14
2019-05-11T09:51:18.176Z,100878.72
2019-05-11T09:53:48.424Z,100888.30
2019-05-11T09:56:20.872Z,100888.44
2019-05-11T09:58:51.160Z,100889.59
2019-05-11T10:01:23.374Z,100891.59
2019-05-11T10:03:53.548Z,100893.25
2019-05-11T10:06:23.753Z,100903.11
2019-05-11T10:08:57.910Z,100899.56
2019-05-11T10:11:28.380Z,100902.75
2019-05-11T10:13:58.532Z,100906.00
2019-05-11T10:16:28.666Z,100909.42
2019-05-11T10:19:08.481Z,100904.55
2019-05-11T10:21:38.830Z,100905.84
2019-05-11T10:24:09.269Z,100908.28
2019-05-11T10:26:40.435Z,100903.36
2019-05-11T10:29:10.611Z,100904.59
2019-05-11T10:31:40.822Z,100903.56
2019-05-11T10:34:10.990Z,100904.13
2019-05-11T10:36:41.234Z,100910.03
2019-05-11T10:39:14.484Z,100915.27
2019-05-11T10:41:44.831Z,100919.38
2019-05-11T10:44:18.816Z,100916.06
2019-05-11T10:46:48.555Z,100927.25
2019-05-11T10:49:21.716Z,100927.84
2019-05-11T10:51:54.816Z,100935.61
2019-05-11T10:54:28.610Z,100933.05
2019-05-11T10:56:57.917Z,100935.09
2019-05-11T10:59:31.317Z,100930.52
2019-05-11T11:02:01.701Z,100926.89
2019-05-11T11:04:31.921Z,100928.88
2019-05-11T11:07:02.069Z,100926.89
2019-05-11T11:09:35.142Z,100932.13
2019-05-11T11:12:08.299Z,100930.92
2019-05-11T11:14:38.468Z,100938.63
2019-05-11T11:17:08.876Z,100943.09
2019-05-11T11:19:39.043Z,100941.91
2019-05-11T11:22:35.002Z,100940.15
2019-05-11T11:24:48.171Z,100937.73
2019-05-11T11:27:21.749Z,100938.69
2019-05-11T11:29:52.925Z,100946.02
2019-05-11T11:32:23.024Z,100949.30
2019-05-11T11:34:53.224Z,100956.44
2019-05-11T11:37:24.722Z,100960.02
2019-05-11T11:39:54.866Z,100959.64
2019-05-11T11:42:25.289Z,100956.66
2019-05-11T11:44:58.887Z,100966.20
2019-05-11T11:47:29.051Z,100965.91
2019-05-11T11:49:59.250Z,100964.84
2019-05-11T11:52:29.496Z,100973.23
2019-05-11T11:54:59.628Z,100977.85
2019-05-11T11:57:30.890Z,100979.90
2019-05-11T12:00:03.906Z,100980.44
2019-05-11T12:02:34.174Z,100986.04
2019-05-11T12:05:04.354Z,100987.88
2019-05-11T12:07:34.833Z,100996.37
2019-05-11T12:10:07.648Z,101003.31
2019-05-11T12:12:38.652Z,100995.22
2019-05-11T12:15:10.575Z,101000.34
2019-05-11T12:17:40.832Z,101009.09
2019-05-11T12:20:11.247Z,101017.09
2019-05-11T12:22:41.455Z,101018.72
2019-05-11T12:25:11.563Z,101023.18
2019-05-11T12:27:41.852Z,101020.04
2019-05-11T12:30:12.297Z,101023.53
2019-05-11T12:32:48.539Z,101028.60
2019-05-11T12:35:18.766Z,101024.83
2019-05-11T12:37:48.971Z,101033.64
2019-05-11T12:40:29.050Z,101030.80
2019-05-11T12:43:02.059Z,101024.17
2019-05-11T12:45:32.216Z,101032.66
2019-05-11T12:48:02.403Z,101031.92
2019-05-11T12:50:32.554Z,101030.53
2019-05-11T12:53:07.844Z,101036.94
2019-05-11T12:55:40.253Z,101034.70
2019-05-11T12:58:14.842Z,101032.90
2019-05-11T13:00:44.965Z,101037.92
2019-05-11T13:03:15.152Z,101038.03
2019-05-11T13:05:45.342Z,101038.72
2019-05-11T13:08:15.531Z,101038.59
2019-05-11T13:10:47.822Z,101037.45
2019-05-11T13:13:23.759Z,101036.52
2019-05-11T13:15:53.855Z,101031.14
2019-05-11T13:18:24.098Z,101023.91
2019-05-11T13:20:54.308Z,101029.66
2019-05-11T13:23:24.477Z,101034.95
2019-05-11T13:25:54.604Z,101032.92
2019-05-11T13:28:25.529Z,101032.59
2019-05-11T13:30:57.770Z,101038.86
2019-05-11T13:33:27.981Z,101031.59
2019-05-11T13:35:58.221Z,101034.95
2019-05-11T13:38:28.449Z,101037.41
2019-05-11T13:40:59.192Z,101034.73
2019-05-11T13:43:34.319Z,101038.20
2019-05-11T13:46:04.396Z,101034.98
2019-05-11T13:48:38.495Z,101029.06
2019-05-11T13:51:08.747Z,101035.36
2019-05-11T13:53:40.191Z,101037.34
2019-05-11T13:56:10.389Z,101036.67
2019-05-11T13:58:40.657Z,101039.44
2019-05-11T14:01:13.909Z,101044.36
2019-05-11T14:03:49.406Z,101041.66
2019-05-11T14:06:19.429Z,101039.34
2019-05-11T14:08:52.628Z,101044.57
2019-05-11T14:11:22.739Z,101046.38
2019-05-11T14:13:52.961Z,101049.33
2019-05-11T14:16:23.160Z,101055.80
2019-05-11T14:18:53.345Z,101050.73
2019-05-11T14:21:23.555Z,101049.74
2019-05-11T14:23:58.626Z,101048.53
2019-05-11T14:26:28.133Z,101053.53
2019-05-11T14:28:58.927Z,101062.06
2019-05-11T14:31:31.560Z,101065.48
2019-05-11T14:34:03.371Z,101071.94
2019-05-11T14:36:33.537Z,101069.14
2019-05-11T14:39:08.409Z,101072.96
2019-05-11T14:41:38.317Z,101078.02
2019-05-11T14:44:09.093Z,101079.08
2019-05-11T14:46:39.344Z,101082.50
2019-05-11T14:49:12.246Z,101085.52
2019-05-11T14:51:44.591Z,101084.02
2019-05-11T14:54:18.542Z,101087.23
2019-05-11T14:56:49.062Z,101097.33
2019-05-11T14:59:19.254Z,101101.95
2019-05-11T15:01:49.501Z,101102.58
2019-05-11T15:04:19.619Z,101103.30
2019-05-11T15:06:58.772Z,101105.38
2019-05-11T15:09:32.797Z,101111.13
2019-05-11T15:12:02.926Z,101120.83
2019-05-11T15:14:33.115Z,101124.22
2019-05-11T15:17:03.219Z,101128.75
2019-05-11T15:19:33.405Z,101126.49
2019-05-11T15:22:03.547Z,101123.50
2019-05-11T15:24:38.341Z,101123.50
2019-05-11T15:27:08.154Z,101121.27
2019-05-11T15:29:38.793Z,101124.36
2019-05-11T15:32:10.365Z,101130.55
2019-05-11T15:34:41.884Z,101132.17
2019-05-11T15:37:13.655Z,101135.70
2019-05-11T15:39:43.890Z,101137.28
2019-05-11T15:42:19.040Z,101137.58
2019-05-11T15:44:48.309Z,101139.95
2019-05-11T15:47:23.762Z,101143.68
2019-05-11T15:49:52.621Z,101148.37
2019-05-11T15:52:43.216Z,101148.33
2019-05-11T15:55:13.924Z,101150.75
2019-05-11T15:57:44.042Z,101150.09
2019-05-11T16:00:15.546Z,101147.67
2019-05-11T16:02:48.736Z,101154.39
2019-05-11T16:05:20.693Z,101154.46
2019-05-11T16:07:53.431Z,101149.94
2019-05-11T16:10:27.852Z,101158.67
2019-05-11T16:12:58.693Z,101153.39
2019-05-11T16:15:28.898Z,101162.95
2019-05-11T16:17:58.998Z,101169.31
2019-05-11T16:20:32.079Z,101165.87
2019-05-11T16:23:02.288Z,101171.56
2019-05-11T16:25:32.485Z,101169.69
2019-05-11T16:28:02.685Z,101167.67
2019-05-11T16:30:32.818Z,101175.30
2019-05-11T16:33:03.060Z,101165.80
2019-05-11T16:35:38.269Z,101180.59
2019-05-11T16:38:10.709Z,101190.67
2019-05-11T16:40:41.134Z,101189.13
2019-05-11T16:43:11.404Z,101188.54
2019-05-11T16:45:41.593Z,101192.06
2019-05-11T16:48:11.720Z,101198.78
2019-05-11T16:50:44.094Z,101195.93
2019-05-11T16:53:15.320Z,101200.63
2019-05-11T16:55:48.410Z,101212.36
2019-05-11T16:58:19.877Z,101215.44
2019-05-11T17:00:53.587Z,101214.08
2019-05-11T17:03:27.971Z,101214.75
2019-05-11T17:06:02.793Z,101216.44
2019-05-11T17:08:33.482Z,101215.56
2019-05-11T17:11:08.216Z,101218.88
2019-05-11T17:13:38.492Z,101225.59
2019-05-11T17:16:10.214Z,101227.52
2019-05-11T17:18:43.376Z,101231.25
2019-05-11T17:21:13.539Z,101239.46
2019-05-11T17:23:44.118Z,101244.14
2019-05-11T17:26:14.275Z,101242.06
2019-05-11T17:28:48.997Z,101248.83
2019-05-11T17:31:19.848Z,101248.69
2019-05-11T17:33:52.692Z,101259.50
2019-05-11T17:36:23.824Z,101264.92
2019-05-11T17:38:54.544Z,101275.68
2019-05-11T17:41:29.171Z,101277.50
2019-05-11T17:43:59.624Z,101287.34
2019-05-11T17:46:30.466Z,101296.81
2019-05-11T17:49:00.664Z,101301.94
2019-05-11T17:51:31.053Z,101300.79
2019-05-11T17:54:01.531Z,101307.77
2019-05-11T17:56:32.562Z,101312.07
2019-05-11T17:59:02.975Z,101322.06
2019-05-11T18:01:33.624Z,101323.23
2019-05-11T18:04:03.855Z,101321.81
2019-05-11T18:06:34.310Z,101329.55
2019-05-11T18:09:08.394Z,101325.89
2019-05-11T18:11:38.659Z,101332.88
2019-05-11T18:14:08.761Z,101331.13
2019-05-11T18:16:38.970Z,101340.28
2019-05-11T18:19:09.238Z,101344.19
2019-05-11T18:21:39.490Z,101356.84
2019-05-11T18:24:11.756Z,101360.48
2019-05-11T18:26:49.264Z,101369.80
2019-05-11T18:29:28.770Z,101375.52
2019-05-11T18:32:00.044Z,101392.70
2019-05-11T18:34:30.364Z,101411.38
2019-05-11T18:37:00.506Z,101418.34
2019-05-11T18:39:30.691Z,101427.70
2019-05-11T18:42:00.913Z,101434.27
2019-05-11T18:44:33.446Z,101432.30
2019-05-11T18:47:03.699Z,101438.81
2019-05-11T18:49:43.363Z,101437.80
2019-05-11T18:52:18.774Z,101440.55
2019-05-11T18:54:47.934Z,101439.66
2019-05-11T18:57:19.364Z,101440.86
2019-05-11T18:59:50.656Z,101454.30
2019-05-11T19:02:20.845Z,101457.54
2019-05-11T19:04:53.845Z,101468.83
2019-05-11T19:07:28.292Z,101466.20
2019-05-11T19:09:58.613Z,101470.50
2019-05-11T19:12:28.791Z,101486.61
2019-05-11T19:14:59.175Z,101493.32
2019-05-11T19:17:38.262Z,101492.45
2019-05-11T19:20:09.144Z,101492.66
2019-05-11T19:22:40.858Z,101496.27
2019-05-11T19:25:12.871Z,101504.36
2019-05-11T19:27:43.243Z,101512.47
2019-05-11T19:30:13.769Z,101522.29
2019-05-11T19:32:43.915Z,101521.93
2019-05-11T19:35:13.516Z,101512.66
2019-05-11T19:37:48.717Z,101526.96
2019-05-11T19:40:19.093Z,101533.67
2019-05-11T19:42:54.467Z,101531.87
2019-05-11T19:45:25.085Z,101539.44
2019-05-11T19:47:57.587Z,101533.38
2019-05-11T19:50:27.206Z,101542.67
2019-05-11T19:52:58.081Z,101544.02
2019-05-11T19:55:31.335Z,101555.52
2019-05-11T19:58:08.609Z,101559.53
2019-05-11T20:00:38.742Z,101577.70
2019-05-11T20:03:09.345Z,101574.67
2019-05-11T20:05:39.718Z,101586.19
2019-05-11T20:08:13.945Z,101591.08
2019-05-11T20:10:48.496Z,101593.77
2019-05-11T20:13:18.455Z,101601.73
2019-05-11T20:15:54.349Z,101606.19
2019-05-11T20:18:25.443Z,101607.09
2019-05-11T20:20:55.624Z,101620.36
2019-05-11T20:23:25.827Z,101620.37
2019-05-11T20:25:58.178Z,101630.98
2019-05-11T20:28:30.353Z,101645.09
2019-05-11T20:31:00.665Z,101644.69
2019-05-11T20:33:30.947Z,101644.68
2019-05-11T20:36:01.359Z,101653.98
2019-05-11T20:38:31.563Z,101649.58
2019-05-11T20:41:01.743Z,101653.55
2019-05-11T20:43:32.287Z,101659.30
2019-05-11T20:46:02.428Z,101668.55
2019-05-11T20:48:38.344Z,101674.33
2019-05-11T20:51:09.979Z,101695.49
2019-05-11T20:53:40.147Z,101690.17
2019-05-11T20:56:10.347Z,101693.29
2019-05-11T20:58:59.528Z,101699.91
2019-05-11T21:01:29.406Z,101699.89
2019-05-11T21:03:59.809Z,101702.99
2019-05-11T21:06:30.011Z,101698.14
2019-05-11T21:09:00.217Z,101705.17
2019-05-11T21:11:30.523Z,101718.41
2019-05-11T21:14:00.728Z,101724.58
2019-05-11T21:16:30.830Z,101725.42
2019-05-11T21:19:01.041Z,101734.22
2019-05-11T21:21:45.199Z,101734.19
2019-05-11T21:24:03.429Z,101738.58
2019-05-11T21:26:33.750Z,101750.92
2019-05-11T21:29:04.090Z,101744.73
2019-05-11T21:31:34.264Z,101751.30
2019-05-11T21:34:04.345Z,101751.30
2019-05-11T21:36:34.511Z,101752.17
2019-05-11T21:39:08.045Z,101757.45
2019-05-11T21:41:38.703Z,101752.16
2019-05-11T21:44:08.997Z,101755.22
2019-05-11T21:46:40.237Z,101758.77
2019-05-11T21:49:11.462Z,101756.54
2019-05-11T21:51:41.604Z,101760.91
2019-05-11T21:54:11.815Z,101764.86
2019-05-11T21:56:43.494Z,101774.95
2019-05-11T21:59:13.606Z,101779.31
2019-05-11T22:01:43.814Z,101792.05
2019-05-11T22:04:14.138Z,101787.64
2019-05-11T22:06:44.331Z,101797.32
2019-05-11T22:09:14.514Z,101793.77
2019-05-11T22:11:44.650Z,101791.92
2019-05-11T22:14:14.781Z,101796.33
2019-05-11T22:16:45.050Z,101803.31
2019-05-11T22:19:15.188Z,101801.62
2019-05-11T22:21:49.410Z,101805.95
2019-05-11T22:24:17.961Z,101814.80
2019-05-11T22:26:49.492Z,101814.83
2019-05-11T22:29:19.636Z,101823.13
2019-05-11T22:31:49.750Z,101829.72
2019-05-11T22:34:19.913Z,101838.48
2019-05-11T22:36:50.091Z,101840.64
2019-05-11T22:39:20.840Z,101845.47
2019-05-11T22:41:51.129Z,101846.31
2019-05-11T22:44:21.600Z,101851.56
2019-05-11T22:46:51.760Z,101857.76
2019-05-11T22:49:21.887Z,101862.59
2019-05-11T22:51:54.135Z,101868.22
2019-05-11T22:54:24.344Z,101873.86
2019-05-11T22:56:54.456Z,101882.19
2019-05-11T22:59:24.618Z,101880.78
2019-05-11T23:01:54.752Z,101887.91
2019-05-11T23:04:24.831Z,101891.37
2019-05-11T23:06:54.942Z,101891.84
2019-05-11T23:09:25.056Z,101890.88
2019-05-11T23:11:55.232Z,101908.00
2019-05-11T23:14:25.433Z,101914.58
2019-05-11T23:16:55.558Z,101915.43
2019-05-11T23:19:27.731Z,101920.64
2019-05-11T23:21:58.715Z,101916.27
2019-05-11T23:24:29.091Z,101917.01
2019-05-11T23:26:59.415Z,101918.81
2019-05-11T23:29:29.583Z,101918.33
2019-05-11T23:31:59.718Z,101923.55
2019-05-11T23:34:29.901Z,101930.50
2019-05-11T23:37:00.031Z,101932.61
2019-05-11T23:39:31.202Z,101932.55
2019-05-11T23:42:01.510Z,101934.27
2019-05-11T23:44:31.701Z,101934.79
2019-05-11T23:47:01.848Z,101931.22
2019-05-11T23:49:32.112Z,101938.16
2019-05-11T23:52:07.782Z,101932.06
2019-05-11T23:54:38.355Z,101942.16
2019-05-11T23:57:09.428Z,101947.73
2019-05-11T23:59:39.738Z,101949.83
